createdAt,value
2019-05-05T00:00:01.677Z,0.00
2019-05-05T00:01:01.730Z,0.00
2019-05-05T00:02:01.653Z,0.00
2019-05-05T00:03:01.647Z,0.00
2019-05-05T00:04:01.633Z,0.00
2019-05-05T00:05:01.622Z,0.00
2019-05-05T00:06:01.612Z,0.00
2019-05-05T00:07:01.815Z,0.00
2019-05-05T00:08:01.585Z,0.00
2019-05-05T00:09:01.576Z,0.00
2019-05-05T00:10:01.566Z,0.00
2019-05-05T00:11:01.553Z,0.00
2019-05-05T00:12:01.542Z,0.00
2019-05-05T00:13:01.599Z,0.00
2019-05-05T00:14:01.520Z,0.00
2019-05-05T00:15:01.509Z,0.00
2019-05-05T00:16:01.501Z,0.00
2019-05-05T00:17:01.488Z,0.00
2019-05-05T00:18:01.480Z,0.00
2019-05-05T00:19:01.532Z,0.00
2019-05-05T00:20:01.459Z,0.00
2019-05-05T00:21:01.443Z,0.00
2019-05-05T00:22:01.437Z,0.00
2019-05-05T00:23:01.421Z,0.00
2019-05-05T00:24:01.410Z,0.00
2019-05-05T00:25:01.612Z,0.00
2019-05-05T00:26:01.504Z,0.00
2019-05-05T00:27:01.410Z,0.00
2019-05-05T00:28:01.426Z,0.00
2019-05-05T00:29:01.364Z,0.00
2019-05-05T00:30:01.361Z,0.00
2019-05-05T00:31:01.553Z,0.00
2019-05-05T00:32:01.387Z,0.00
2019-05-05T00:33:01.324Z,0.00
2019-05-05T00:34:01.348Z,0.00
2019-05-05T00:35:01.318Z,0.00
2019-05-05T00:36:01.304Z,0.00
2019-05-05T00:37:01.502Z,0.00
2019-05-05T00:38:01.308Z,0.00
2019-05-05T00:39:01.298Z,0.00
2019-05-05T00:40:01.255Z,0.00
2019-05-05T00:41:01.274Z,0.00
2019-05-05T00:42:01.240Z,0.00
2019-05-05T00:43:01.503Z,0.00
2019-05-05T00:44:01.217Z,0.00
2019-05-05T00:45:01.184Z,0.00
2019-05-05T00:46:01.187Z,0.00
2019-05-05T00:47:01.157Z,0.00
2019-05-05T00:48:01.175Z,0.00
2019-05-05T00:49:01.216Z,0.00
2019-05-05T00:50:01.139Z,0.00
2019-05-05T00:51:01.120Z,0.00
2019-05-05T00:52:01.106Z,0.00
2019-05-05T00:53:01.132Z,0.00
2019-05-05T00:54:01.113Z,0.00
2019-05-05T00:55:01.192Z,0.00
2019-05-05T00:56:01.078Z,0.00
2019-05-05T00:57:01.053Z,0.00
2019-05-05T00:58:01.042Z,0.00
2019-05-05T00:59:04.589Z,0.00
2019-05-05T01:00:01.021Z,0.00
2019-05-05T01:01:01.075Z,0.00
2019-05-05T01:02:01.002Z,0.00
2019-05-05T01:03:00.994Z,0.00
2019-05-05T01:04:00.968Z,0.00
2019-05-05T01:05:00.966Z,0.00
2019-05-05T01:06:00.970Z,0.00
2019-05-05T01:07:01.153Z,0.00
2019-05-05T01:08:00.940Z,0.00
2019-05-05T01:09:00.919Z,0.00
2019-05-05T01:10:00.913Z,0.00
2019-05-05T01:11:00.897Z,0.00
2019-05-05T01:12:01.799Z,0.00
2019-05-05T01:13:01.080Z,0.00
2019-05-05T01:14:00.854Z,0.00
2019-05-05T01:15:00.844Z,0.00
2019-05-05T01:16:00.833Z,0.00
2019-05-05T01:17:00.820Z,0.00
2019-05-05T01:18:02.262Z,0.00
2019-05-05T01:19:00.867Z,0.00
2019-05-05T01:20:04.059Z,0.00
2019-05-05T01:21:01.774Z,0.00
2019-05-05T01:22:00.766Z,0.00
2019-05-05T01:23:00.755Z,0.00
2019-05-05T01:24:00.745Z,0.00
2019-05-05T01:25:00.799Z,0.00
2019-05-05T01:26:00.726Z,0.00
2019-05-05T01:27:00.713Z,0.00
2019-05-05T01:28:00.703Z,0.00
2019-05-05T01:29:00.688Z,0.00
2019-05-05T01:30:00.678Z,0.00
2019-05-05T01:31:01.184Z,0.00
2019-05-05T01:32:00.658Z,0.00
2019-05-05T01:33:00.642Z,0.00
2019-05-05T01:34:00.632Z,0.00
2019-05-05T01:35:00.624Z,0.00
2019-05-05T01:36:00.614Z,0.00
2019-05-05T01:37:02.236Z,0.00
2019-05-05T01:38:00.587Z,0.00
2019-05-05T01:39:00.578Z,0.00
2019-05-05T01:40:00.565Z,0.00
2019-05-05T01:41:00.553Z,0.00
2019-05-05T01:42:00.542Z,0.00
2019-05-05T01:43:00.600Z,0.00
2019-05-05T01:44:00.521Z,0.00
2019-05-05T01:45:00.512Z,0.00
2019-05-05T01:46:00.501Z,0.00
2019-05-05T01:47:00.487Z,0.00
2019-05-05T01:48:00.476Z,0.00
2019-05-05T01:49:00.531Z,0.00
2019-05-05T01:50:08.236Z,0.00
2019-05-05T01:51:01.442Z,0.00
2019-05-05T01:52:00.431Z,0.00
2019-05-05T01:53:00.421Z,0.00
2019-05-05T01:54:00.410Z,0.00
2019-05-05T01:55:00.464Z,0.00
2019-05-05T01:56:00.387Z,0.00
2019-05-05T01:57:00.379Z,0.00
2019-05-05T01:58:00.367Z,0.00
2019-05-05T01:59:00.353Z,0.00
2019-05-05T02:00:00.345Z,0.00
2019-05-05T02:01:00.413Z,0.00
2019-05-05T02:02:00.320Z,0.00
2019-05-05T02:03:00.310Z,0.00
2019-05-05T02:04:00.298Z,0.00
2019-05-05T02:05:00.287Z,0.00
2019-05-05T02:06:00.275Z,0.00
2019-05-05T02:07:00.524Z,0.00
2019-05-05T02:08:00.257Z,0.00
2019-05-05T02:09:00.253Z,0.00
2019-05-05T02:10:00.234Z,0.00
2019-05-05T02:11:00.220Z,0.00
2019-05-05T02:12:00.209Z,0.00
2019-05-05T02:13:00.920Z,0.00
2019-05-05T02:14:00.187Z,0.00
2019-05-05T02:15:00.176Z,0.00
2019-05-05T02:16:00.165Z,0.00
2019-05-05T02:17:00.161Z,0.00
2019-05-05T02:18:00.141Z,0.00
2019-05-05T02:19:00.962Z,0.00
2019-05-05T02:20:00.119Z,0.00
2019-05-05T02:21:00.107Z,0.00
2019-05-05T02:22:00.096Z,0.00
2019-05-05T02:23:00.086Z,0.00
2019-05-05T02:24:00.076Z,0.00
2019-05-05T02:25:00.130Z,0.00
2019-05-05T02:26:00.057Z,0.00
2019-05-05T02:27:00.041Z,0.00
2019-05-05T02:28:00.028Z,0.00
2019-05-05T02:29:00.020Z,0.00
2019-05-05T02:30:00.009Z,0.00
2019-05-05T02:31:00.336Z,0.00
2019-05-05T02:31:59.985Z,0.00
2019-05-05T02:32:59.978Z,0.00
2019-05-05T02:33:59.961Z,0.00
2019-05-05T02:34:59.951Z,0.00
2019-05-05T02:35:59.939Z,0.00
2019-05-05T02:37:00.347Z,0.00
2019-05-05T02:37:59.919Z,0.00
2019-05-05T02:38:59.905Z,0.00
2019-05-05T02:40:06.392Z,0.00
2019-05-05T02:41:00.882Z,0.00
2019-05-05T02:41:59.871Z,0.00
2019-05-05T02:42:59.927Z,0.00
2019-05-05T02:43:59.848Z,0.00
2019-05-05T02:44:59.839Z,0.00
2019-05-05T02:45:59.836Z,0.00
2019-05-05T02:46:59.814Z,0.00
2019-05-05T02:47:59.805Z,0.00
2019-05-05T02:48:59.865Z,0.00
2019-05-05T02:49:59.780Z,0.00
2019-05-05T02:51:02.058Z,0.00
2019-05-05T02:51:59.772Z,0.00
2019-05-05T02:52:59.746Z,0.00
2019-05-05T02:53:59.738Z,0.00
2019-05-05T02:54:59.792Z,0.00
2019-05-05T02:55:59.714Z,0.00
2019-05-05T02:56:59.703Z,0.00
2019-05-05T02:57:59.691Z,0.00
2019-05-05T02:58:59.680Z,0.00
2019-05-05T02:59:59.670Z,0.00
2019-05-05T03:00:59.726Z,0.00
2019-05-05T03:01:59.645Z,0.00
2019-05-05T03:02:59.635Z,0.00
2019-05-05T03:03:59.630Z,0.00
2019-05-05T03:04:59.615Z,0.00
2019-05-05T03:05:59.601Z,0.00
2019-05-05T03:06:59.808Z,0.00
2019-05-05T03:07:59.579Z,0.00
2019-05-05T03:08:59.569Z,0.00
2019-05-05T03:09:59.561Z,0.00
2019-05-05T03:10:59.545Z,0.00
2019-05-05T03:11:59.533Z,0.00
2019-05-05T03:12:59.594Z,0.00
2019-05-05T03:13:59.512Z,0.00
2019-05-05T03:14:59.500Z,0.00
2019-05-05T03:15:59.490Z,0.00
2019-05-05T03:16:59.480Z,0.00
2019-05-05T03:17:59.466Z,0.00
2019-05-05T03:18:59.522Z,0.00
2019-05-05T03:19:59.443Z,0.00
2019-05-05T03:21:04.483Z,0.00
2019-05-05T03:22:00.420Z,0.00
2019-05-05T03:22:59.411Z,0.00
2019-05-05T03:23:59.400Z,0.00
2019-05-05T03:24:59.454Z,0.00
2019-05-05T03:25:59.382Z,0.00
2019-05-05T03:26:59.364Z,0.00
2019-05-05T03:27:59.354Z,0.00
2019-05-05T03:28:59.342Z,0.00
2019-05-05T03:29:59.332Z,0.00
2019-05-05T03:30:59.388Z,0.00
2019-05-05T03:31:59.312Z,0.00
2019-05-05T03:32:59.297Z,0.00
2019-05-05T03:33:59.300Z,0.00
2019-05-05T03:34:59.275Z,0.00
2019-05-05T03:35:59.266Z,0.00
2019-05-05T03:36:59.321Z,0.00
2019-05-05T03:37:59.241Z,5.62
2019-05-05T03:38:59.230Z,5.62
2019-05-05T03:39:59.218Z,5.62
2019-05-05T03:40:59.206Z,5.62
2019-05-05T03:41:59.197Z,5.62
2019-05-05T03:42:59.251Z,5.62
2019-05-05T03:43:59.174Z,5.62
2019-05-05T03:44:59.165Z,11.25
2019-05-05T03:45:59.166Z,11.25
2019-05-05T03:46:59.143Z,11.25
2019-05-05T03:47:59.128Z,11.25
2019-05-05T03:48:59.329Z,16.88
2019-05-05T03:49:59.106Z,16.88
2019-05-05T03:50:59.097Z,22.50
2019-05-05T03:51:59.083Z,22.50
2019-05-05T03:52:59.073Z,28.12
2019-05-05T03:53:59.062Z,28.12
2019-05-05T03:54:59.115Z,28.12
2019-05-05T03:55:59.038Z,28.12
2019-05-05T03:56:59.032Z,33.75
2019-05-05T03:57:59.016Z,33.75
2019-05-05T03:58:59.005Z,33.75
2019-05-05T03:59:58.995Z,39.38
2019-05-05T04:00:59.050Z,39.38
2019-05-05T04:01:58.973Z,45.00
2019-05-05T04:02:58.960Z,45.00
2019-05-05T04:03:58.951Z,45.00
2019-05-05T04:04:58.938Z,50.62
2019-05-05T04:05:58.926Z,50.62
2019-05-05T04:06:58.981Z,50.62
2019-05-05T04:07:58.907Z,56.25
2019-05-05T04:08:58.897Z,61.88
2019-05-05T04:09:58.882Z,67.50
2019-05-05T04:10:58.871Z,73.12
2019-05-05T04:11:58.862Z,78.75
2019-05-05T04:12:58.920Z,84.38
2019-05-05T04:13:58.840Z,90.00
2019-05-05T04:14:58.827Z,95.62
2019-05-05T04:15:58.816Z,101.25
2019-05-05T04:16:58.806Z,106.88
2019-05-05T04:17:58.799Z,112.50
2019-05-05T04:18:58.853Z,112.50
2019-05-05T04:19:58.772Z,118.12
2019-05-05T04:20:58.761Z,123.75
2019-05-05T04:21:58.751Z,135.00
2019-05-05T04:22:58.739Z,146.25
2019-05-05T04:23:58.730Z,151.88
2019-05-05T04:24:58.786Z,157.50
2019-05-05T04:25:58.707Z,168.75
2019-05-05T04:26:58.695Z,180.00
2019-05-05T04:27:58.689Z,191.25
2019-05-05T04:28:58.673Z,196.88
2019-05-05T04:29:58.662Z,208.12
2019-05-05T04:30:58.719Z,213.75
2019-05-05T04:31:58.643Z,225.00
2019-05-05T04:32:58.629Z,236.25
2019-05-05T04:33:58.619Z,247.50
2019-05-05T04:34:58.608Z,253.12
2019-05-05T04:35:58.597Z,258.75
2019-05-05T04:36:58.655Z,264.38
2019-05-05T04:37:58.578Z,264.38
2019-05-05T04:38:58.565Z,270.00
2019-05-05T04:39:58.552Z,281.25
2019-05-05T04:40:58.543Z,292.50
2019-05-05T04:41:58.531Z,298.12
2019-05-05T04:42:58.588Z,309.38
2019-05-05T04:43:58.509Z,315.00
2019-05-05T04:44:58.500Z,320.62
2019-05-05T04:45:58.494Z,331.88
2019-05-05T04:46:58.475Z,343.12
2019-05-05T04:47:58.466Z,354.38
2019-05-05T04:48:58.520Z,365.62
2019-05-05T04:49:58.441Z,376.88
2019-05-05T04:50:58.436Z,388.12
2019-05-05T04:51:58.418Z,393.75
2019-05-05T04:52:58.406Z,393.75
2019-05-05T04:53:58.396Z,393.75
2019-05-05T04:54:58.450Z,393.75
2019-05-05T04:55:58.373Z,393.75
2019-05-05T04:56:58.362Z,399.38
2019-05-05T04:57:58.353Z,399.38
2019-05-05T04:58:58.345Z,393.75
2019-05-05T04:59:58.331Z,382.50
2019-05-05T05:00:58.530Z,388.12
2019-05-05T05:01:58.304Z,382.50
2019-05-05T05:02:58.296Z,382.50
2019-05-05T05:03:58.282Z,382.50
2019-05-05T05:04:58.271Z,382.50
2019-05-05T05:05:58.260Z,382.50
2019-05-05T05:06:58.314Z,376.88
2019-05-05T05:07:58.240Z,371.25
2019-05-05T05:08:58.231Z,354.38
2019-05-05T05:09:58.219Z,365.62
2019-05-05T05:10:58.204Z,360.00
2019-05-05T05:11:58.194Z,360.00
2019-05-05T05:12:58.249Z,360.00
2019-05-05T05:13:58.172Z,360.00
2019-05-05T05:14:58.160Z,360.00
2019-05-05T05:15:58.151Z,360.00
2019-05-05T05:16:58.138Z,360.00
2019-05-05T05:17:58.126Z,354.38
2019-05-05T05:18:58.182Z,354.38
2019-05-05T05:19:58.108Z,360.00
2019-05-05T05:20:58.093Z,360.00
2019-05-05T05:22:01.801Z,360.00
2019-05-05T05:22:58.072Z,365.62
2019-05-05T05:23:58.061Z,371.25
2019-05-05T05:24:58.260Z,376.88
2019-05-05T05:25:58.038Z,382.50
2019-05-05T05:26:58.027Z,393.75
2019-05-05T05:27:58.025Z,399.38
2019-05-05T05:28:58.007Z,466.88
2019-05-05T05:29:57.994Z,663.75
2019-05-05T05:30:58.206Z,832.50
2019-05-05T05:31:57.973Z,866.25
2019-05-05T05:32:57.959Z,860.62
2019-05-05T05:33:57.952Z,483.75
2019-05-05T05:34:57.938Z,838.12
2019-05-05T05:35:57.925Z,871.88
2019-05-05T05:36:57.984Z,922.50
2019-05-05T05:37:57.904Z,967.50
2019-05-05T05:38:57.893Z,1068.75
2019-05-05T05:39:57.885Z,1130.62
2019-05-05T05:40:57.871Z,1147.50
2019-05-05T05:41:57.857Z,1170.00
2019-05-05T05:42:57.931Z,1192.50
2019-05-05T05:43:57.837Z,1215.00
2019-05-05T05:44:57.833Z,1209.38
2019-05-05T05:45:57.818Z,1226.25
2019-05-05T05:46:57.805Z,1288.12
2019-05-05T05:47:57.793Z,1338.75
2019-05-05T05:48:57.847Z,1344.38
2019-05-05T05:49:57.768Z,1333.12
2019-05-05T05:50:57.791Z,1372.50
2019-05-05T05:51:57.826Z,1406.25
2019-05-05T05:52:57.780Z,1428.75
2019-05-05T05:53:57.736Z,1451.25
2019-05-05T05:54:57.813Z,1451.25
2019-05-05T05:55:57.739Z,1473.75
2019-05-05T05:56:57.699Z,1485.00
2019-05-05T05:57:57.711Z,1524.38
2019-05-05T05:58:57.668Z,1541.25
2019-05-05T05:59:57.657Z,1530.00
2019-05-05T06:00:57.734Z,1518.75
2019-05-05T06:02:08.987Z,1524.38
2019-05-05T06:02:58.631Z,1546.88
2019-05-05T06:03:57.685Z,1597.50
2019-05-05T06:04:57.608Z,1653.75
2019-05-05T06:05:57.617Z,1681.88
2019-05-05T06:06:57.876Z,1721.25
2019-05-05T06:07:57.617Z,1760.62
2019-05-05T06:08:57.560Z,1732.50
2019-05-05T06:09:57.660Z,1715.62
2019-05-05T06:10:57.552Z,1721.25
2019-05-05T06:11:57.576Z,1788.75
2019-05-05T06:12:57.638Z,1771.88
2019-05-05T06:13:57.509Z,1766.25
2019-05-05T06:14:57.514Z,1777.50
2019-05-05T06:15:57.486Z,1777.50
2019-05-05T06:16:57.488Z,1800.00
2019-05-05T06:17:57.461Z,1816.88
2019-05-05T06:18:57.664Z,1867.50
2019-05-05T06:19:57.431Z,1923.75
2019-05-05T06:20:57.417Z,1974.38
2019-05-05T06:21:57.406Z,2013.75
2019-05-05T06:22:57.397Z,2008.12
2019-05-05T06:23:57.387Z,2002.50
2019-05-05T06:24:57.449Z,2008.12
2019-05-05T06:25:57.364Z,1985.62
2019-05-05T06:26:57.361Z,2019.38
2019-05-05T06:27:57.339Z,2008.12
2019-05-05T06:28:57.327Z,1923.75
2019-05-05T06:29:57.324Z,1946.25
2019-05-05T06:30:57.374Z,2030.62
2019-05-05T06:31:57.324Z,2171.25
2019-05-05T06:32:57.282Z,2244.38
2019-05-05T06:33:57.270Z,2278.12
2019-05-05T06:34:57.317Z,2283.75
2019-05-05T06:35:57.250Z,2300.62
2019-05-05T06:36:57.343Z,2401.88
2019-05-05T06:37:57.224Z,2351.25
2019-05-05T06:38:57.219Z,2283.75
2019-05-05T06:39:57.202Z,2311.88
2019-05-05T06:40:57.192Z,2221.88
2019-05-05T06:41:57.180Z,2171.25
2019-05-05T06:42:57.234Z,2221.88
2019-05-05T06:43:57.157Z,2266.88
2019-05-05T06:44:57.146Z,2345.62
2019-05-05T06:45:57.134Z,2311.88
2019-05-05T06:46:57.122Z,2266.88
2019-05-05T06:47:57.113Z,2289.38
2019-05-05T06:48:57.167Z,2255.62
2019-05-05T06:49:57.159Z,2351.25
2019-05-05T06:50:57.078Z,2266.88
2019-05-05T06:51:57.070Z,2272.50
2019-05-05T06:52:57.054Z,2390.62
2019-05-05T06:53:57.046Z,1771.88
2019-05-05T06:54:57.100Z,855.00
2019-05-05T06:55:57.023Z,652.50
2019-05-05T06:56:57.013Z,618.75
2019-05-05T06:57:56.996Z,613.12
2019-05-05T06:58:56.989Z,607.50
2019-05-05T06:59:56.980Z,601.88
2019-05-05T07:00:57.029Z,596.25
2019-05-05T07:01:56.955Z,596.25
2019-05-05T07:02:56.942Z,596.25
2019-05-05T07:03:56.932Z,596.25
2019-05-05T07:04:56.921Z,596.25
2019-05-05T07:05:56.908Z,596.25
2019-05-05T07:06:57.283Z,596.25
2019-05-05T07:07:56.885Z,596.25
2019-05-05T07:08:56.872Z,590.62
2019-05-05T07:09:56.860Z,590.62
2019-05-05T07:10:56.853Z,590.62
2019-05-05T07:11:56.842Z,590.62
2019-05-05T07:12:57.043Z,590.62
2019-05-05T07:13:56.818Z,590.62
2019-05-05T07:14:56.809Z,596.25
2019-05-05T07:15:56.793Z,601.88
2019-05-05T07:16:56.782Z,601.88
2019-05-05T07:17:56.776Z,607.50
2019-05-05T07:18:56.829Z,613.12
2019-05-05T07:19:56.751Z,618.75
2019-05-05T07:20:56.737Z,618.75
2019-05-05T07:21:56.756Z,624.38
2019-05-05T07:23:02.018Z,624.38
2019-05-05T07:23:57.798Z,630.00
2019-05-05T07:24:56.698Z,635.62
2019-05-05T07:25:56.680Z,635.62
2019-05-05T07:26:56.671Z,641.25
2019-05-05T07:27:56.660Z,646.88
2019-05-05T07:28:56.647Z,652.50
2019-05-05T07:29:56.702Z,652.50
2019-05-05T07:30:56.675Z,658.12
2019-05-05T07:31:56.614Z,669.38
2019-05-05T07:32:56.604Z,675.00
2019-05-05T07:33:56.592Z,686.25
2019-05-05T07:34:56.581Z,697.50
2019-05-05T07:36:02.966Z,703.12
2019-05-05T07:36:57.559Z,703.12
2019-05-05T07:37:56.559Z,703.12
2019-05-05T07:38:56.535Z,708.75
2019-05-05T07:39:56.530Z,720.00
2019-05-05T07:40:56.513Z,720.00
2019-05-05T07:41:56.580Z,725.62
2019-05-05T07:42:56.493Z,731.25
2019-05-05T07:43:56.479Z,742.50
2019-05-05T07:44:56.468Z,748.12
2019-05-05T07:45:56.473Z,759.38
2019-05-05T07:46:56.451Z,770.62
2019-05-05T07:47:56.525Z,776.25
2019-05-05T07:48:56.429Z,793.12
2019-05-05T07:49:56.510Z,804.38
2019-05-05T07:51:01.905Z,815.62
2019-05-05T07:51:57.465Z,821.25
2019-05-05T07:53:10.398Z,843.75
2019-05-05T07:53:57.470Z,855.00
2019-05-05T07:54:56.446Z,888.75
2019-05-05T07:55:56.390Z,911.25
2019-05-05T07:56:56.339Z,933.75
2019-05-05T07:57:56.445Z,956.25
2019-05-05T07:58:56.368Z,978.75
2019-05-05T07:59:56.399Z,1001.25
2019-05-05T08:00:56.317Z,1029.38
2019-05-05T08:01:56.330Z,1068.75
2019-05-05T08:02:56.282Z,1085.62
2019-05-05T08:03:56.263Z,1080.00
2019-05-05T08:04:56.261Z,1080.00
2019-05-05T08:05:56.459Z,1125.00
2019-05-05T08:06:56.293Z,1119.38
2019-05-05T08:07:56.227Z,1119.38
2019-05-05T08:08:56.221Z,905.62
2019-05-05T08:09:56.193Z,1198.12
2019-05-05T08:10:56.202Z,1130.62
2019-05-05T08:11:56.398Z,1366.88
2019-05-05T08:12:56.160Z,1445.62
2019-05-05T08:13:56.151Z,1462.50
2019-05-05T08:14:56.144Z,1395.00
2019-05-05T08:15:59.747Z,1305.00
2019-05-05T08:16:56.108Z,1254.38
2019-05-05T08:17:56.164Z,1254.38
2019-05-05T08:18:56.088Z,1243.12
2019-05-05T08:19:56.073Z,961.88
2019-05-05T08:20:56.064Z,1141.88
2019-05-05T08:21:56.051Z,950.62
2019-05-05T08:22:56.039Z,1085.62
2019-05-05T08:23:56.101Z,1063.12
2019-05-05T08:24:56.021Z,686.25
2019-05-05T08:25:56.007Z,1040.62
2019-05-05T08:26:56.034Z,1029.38
2019-05-05T08:27:55.984Z,1018.12
2019-05-05T08:28:55.971Z,1012.50
2019-05-05T08:29:56.026Z,1012.50
2019-05-05T08:30:55.954Z,1006.88
2019-05-05T08:31:55.939Z,1006.88
2019-05-05T08:32:55.926Z,990.00
2019-05-05T08:33:55.918Z,990.00
2019-05-05T08:35:00.526Z,978.75
2019-05-05T08:35:56.960Z,978.75
2019-05-05T08:36:55.908Z,978.75
2019-05-05T08:37:55.871Z,978.75
2019-05-05T08:38:55.859Z,984.38
2019-05-05T08:39:55.865Z,1006.88
2019-05-05T08:40:55.835Z,1023.75
2019-05-05T08:41:56.036Z,1001.25
2019-05-05T08:42:55.814Z,990.00
2019-05-05T08:43:55.804Z,1006.88
2019-05-05T08:44:55.796Z,1006.88
2019-05-05T08:45:55.782Z,1006.88
2019-05-05T08:46:55.771Z,1006.88
2019-05-05T08:47:55.824Z,1012.50
2019-05-05T08:48:55.750Z,1006.88
2019-05-05T08:49:55.737Z,1001.25
2019-05-05T08:50:55.732Z,1001.25
2019-05-05T08:51:55.712Z,1006.88
2019-05-05T08:52:55.705Z,1018.12
2019-05-05T08:53:55.760Z,1029.38
2019-05-05T08:54:55.680Z,1063.12
2019-05-05T08:55:55.674Z,1136.25
2019-05-05T08:56:55.660Z,1226.25
2019-05-05T08:57:55.646Z,1299.38
2019-05-05T08:58:55.636Z,1321.88
2019-05-05T08:59:55.840Z,1327.50
2019-05-05T09:00:55.613Z,1305.00
2019-05-05T09:01:55.603Z,1282.50
2019-05-05T09:02:55.592Z,1299.38
2019-05-05T09:03:55.581Z,1338.75
2019-05-05T09:04:55.568Z,1366.88
2019-05-05T09:05:55.622Z,1406.25
2019-05-05T09:06:55.545Z,1546.88
2019-05-05T09:07:55.539Z,3048.75
2019-05-05T09:08:55.525Z,4640.62
2019-05-05T09:09:55.513Z,5023.12
2019-05-05T09:10:55.502Z,5158.12
2019-05-05T09:11:55.557Z,5343.75
2019-05-05T09:12:55.481Z,5602.50
2019-05-05T09:13:55.469Z,5686.88
2019-05-05T09:14:55.460Z,5698.12
2019-05-05T09:15:55.446Z,5647.50
2019-05-05T09:16:55.469Z,5428.12
2019-05-05T09:17:55.487Z,5850.00
2019-05-05T09:18:55.411Z,1378.12
2019-05-05T09:19:55.399Z,5827.50
2019-05-05T09:20:55.391Z,2851.88
2019-05-05T09:21:55.378Z,1299.38
2019-05-05T09:22:57.301Z,1468.12
2019-05-05T09:24:01.560Z,5945.62
2019-05-05T09:24:56.344Z,6086.25
2019-05-05T09:25:55.335Z,6294.38
2019-05-05T09:26:55.323Z,4736.25
2019-05-05T09:27:55.314Z,1951.88
2019-05-05T09:28:55.302Z,1580.62
2019-05-05T09:29:55.357Z,1440.00
2019-05-05T09:30:55.279Z,1490.62
2019-05-05T09:31:55.269Z,2469.38
2019-05-05T09:32:55.263Z,5636.25
2019-05-05T09:33:55.246Z,4016.25
2019-05-05T09:34:55.237Z,2221.88
2019-05-05T09:35:55.290Z,6091.88
2019-05-05T09:36:55.213Z,6508.12
2019-05-05T09:37:55.204Z,5692.50
2019-05-05T09:38:55.192Z,2255.62
2019-05-05T09:39:55.181Z,1333.12
2019-05-05T09:40:55.188Z,1406.25
2019-05-05T09:41:55.227Z,1552.50
2019-05-05T09:42:55.147Z,1698.75
2019-05-05T09:43:55.136Z,1383.75
2019-05-05T09:44:55.125Z,1209.38
2019-05-05T09:45:55.114Z,2120.62
2019-05-05T09:46:55.105Z,995.62
2019-05-05T09:47:55.158Z,933.75
2019-05-05T09:48:55.082Z,894.38
2019-05-05T09:49:55.081Z,888.75
2019-05-05T09:50:55.062Z,900.00
2019-05-05T09:51:55.050Z,5653.12
2019-05-05T09:52:55.038Z,5546.25
2019-05-05T09:53:55.092Z,5557.50
2019-05-05T09:54:55.013Z,5698.12
2019-05-05T09:55:55.005Z,5658.75
2019-05-05T09:56:54.994Z,5810.62
2019-05-05T09:57:54.981Z,6024.38
2019-05-05T09:58:54.969Z,5962.50
2019-05-05T09:59:55.026Z,6041.25
2019-05-05T10:00:54.957Z,6288.75
2019-05-05T10:01:54.936Z,6226.88
2019-05-05T10:02:54.935Z,6384.38
2019-05-05T10:03:54.914Z,6631.88
2019-05-05T10:04:54.904Z,6013.12
2019-05-05T10:05:54.964Z,2328.75
2019-05-05T10:06:54.883Z,1749.38
2019-05-05T10:07:54.872Z,1530.00
2019-05-05T10:08:54.863Z,1681.88
2019-05-05T10:09:54.849Z,1800.00
2019-05-05T10:10:54.874Z,6828.75
2019-05-05T10:11:54.894Z,2137.50
2019-05-05T10:12:54.999Z,1929.38
2019-05-05T10:13:54.805Z,3493.12
2019-05-05T10:14:54.810Z,2036.25
2019-05-05T10:15:55.016Z,1473.75
2019-05-05T10:16:54.770Z,1321.88
2019-05-05T10:17:54.970Z,1209.38
2019-05-05T10:18:54.753Z,1136.25
2019-05-05T10:19:54.776Z,1074.38
2019-05-05T10:20:54.727Z,1035.00
2019-05-05T10:21:54.714Z,1012.50
2019-05-05T10:22:54.706Z,1006.88
2019-05-05T10:23:54.758Z,1018.12
2019-05-05T10:24:57.317Z,1063.12
2019-05-05T10:25:54.670Z,1125.00
2019-05-05T10:26:54.661Z,1198.12
2019-05-05T10:27:54.656Z,1271.25
2019-05-05T10:28:54.693Z,1338.75
2019-05-05T10:29:54.892Z,1400.62
2019-05-05T10:30:54.628Z,1462.50
2019-05-05T10:31:54.609Z,1501.88
2019-05-05T10:32:54.716Z,1490.62
2019-05-05T10:33:54.583Z,1518.75
2019-05-05T10:34:54.569Z,1743.75
2019-05-05T10:35:54.626Z,1546.88
2019-05-05T10:36:54.546Z,1468.12
2019-05-05T10:37:54.643Z,1440.00
2019-05-05T10:38:54.525Z,1417.50
2019-05-05T10:39:54.513Z,1451.25
2019-05-05T10:40:54.502Z,1563.75
2019-05-05T10:41:56.205Z,2115.00
2019-05-05T10:42:54.479Z,3082.50
2019-05-05T10:43:54.482Z,1935.00
2019-05-05T10:44:54.457Z,2188.12
2019-05-05T10:45:54.737Z,5158.12
2019-05-05T10:46:54.439Z,1878.75
2019-05-05T10:47:54.500Z,1676.25
2019-05-05T10:48:54.411Z,1704.38
2019-05-05T10:49:54.547Z,1586.25
2019-05-05T10:50:54.390Z,1552.50
2019-05-05T10:51:54.477Z,1541.25
2019-05-05T10:52:54.364Z,1591.88
2019-05-05T10:53:54.638Z,1614.38
2019-05-05T10:54:54.903Z,1659.38
2019-05-05T10:55:54.331Z,1670.62
2019-05-05T10:56:54.321Z,1732.50
2019-05-05T10:57:54.533Z,6536.25
2019-05-05T10:58:54.637Z,2250.00
2019-05-05T10:59:54.354Z,1980.00
2019-05-05T11:00:54.553Z,1940.62
2019-05-05T11:01:54.263Z,1906.88
2019-05-05T11:02:54.252Z,1743.75
2019-05-05T11:03:54.241Z,1653.75
2019-05-05T11:04:54.663Z,1642.50
2019-05-05T11:05:54.284Z,1659.38
2019-05-05T11:06:54.664Z,1698.75
2019-05-05T11:07:54.195Z,1726.88
2019-05-05T11:08:54.183Z,1811.25
2019-05-05T11:09:54.171Z,1946.25
2019-05-05T11:10:54.162Z,2806.88
2019-05-05T11:11:54.216Z,6800.62
2019-05-05T11:12:54.137Z,7188.75
2019-05-05T11:13:54.351Z,4089.38
2019-05-05T11:14:54.546Z,2081.25
2019-05-05T11:15:54.703Z,1878.75
2019-05-05T11:16:54.643Z,1777.50
2019-05-05T11:17:54.330Z,1732.50
2019-05-05T11:18:54.188Z,1693.12
2019-05-05T11:19:54.057Z,1642.50
2019-05-05T11:20:54.802Z,1575.00
2019-05-05T11:21:54.118Z,1507.50
2019-05-05T11:22:54.226Z,1462.50
2019-05-05T11:23:54.226Z,1440.00
2019-05-05T11:25:00.574Z,1411.88
2019-05-05T11:25:54.990Z,1400.62
2019-05-05T11:26:54.137Z,1406.25
2019-05-05T11:27:54.220Z,1490.62
2019-05-05T11:28:54.007Z,1440.00
2019-05-05T11:29:54.206Z,1423.12
2019-05-05T11:30:53.936Z,1456.88
2019-05-05T11:31:53.925Z,1496.25
2019-05-05T11:32:53.913Z,1535.62
2019-05-05T11:33:54.287Z,3116.25
2019-05-05T11:34:53.891Z,1923.75
2019-05-05T11:35:54.096Z,1580.62
2019-05-05T11:36:54.425Z,1586.25
2019-05-05T11:37:54.309Z,1659.38
2019-05-05T11:38:53.875Z,1873.12
2019-05-05T11:39:53.835Z,2058.75
2019-05-05T11:40:54.625Z,5326.88
2019-05-05T11:41:54.777Z,2812.50
2019-05-05T11:42:54.123Z,6710.62
2019-05-05T11:43:53.791Z,2064.38
2019-05-05T11:44:53.780Z,6648.75
2019-05-05T11:45:54.379Z,6390.00
2019-05-05T11:46:54.684Z,6294.38
2019-05-05T11:47:53.958Z,6316.88
2019-05-05T11:48:54.384Z,5101.88
2019-05-05T11:49:56.622Z,3105.00
2019-05-05T11:50:54.128Z,2981.25
2019-05-05T11:51:54.340Z,5433.75
2019-05-05T11:52:54.465Z,6435.00
2019-05-05T11:53:54.101Z,2941.88
2019-05-05T11:54:54.359Z,6260.62
2019-05-05T11:55:54.990Z,5355.00
2019-05-05T11:56:54.063Z,6913.12
2019-05-05T11:57:54.468Z,3813.75
2019-05-05T11:58:54.629Z,2632.50
2019-05-05T11:59:54.064Z,2311.88
2019-05-05T12:00:54.438Z,2536.88
2019-05-05T12:01:54.977Z,6862.50
2019-05-05T12:02:54.383Z,2913.75
2019-05-05T12:30:48.985Z,1321.88
2019-05-05T12:31:48.982Z,1215.00
2019-05-05T12:32:48.958Z,1102.50
2019-05-05T12:33:48.946Z,978.75
2019-05-05T12:34:49.147Z,900.00
2019-05-05T12:35:48.924Z,815.62
2019-05-05T12:36:48.913Z,759.38
2019-05-05T12:37:48.903Z,731.25
2019-05-05T12:38:48.890Z,720.00
2019-05-05T12:39:48.878Z,731.25
2019-05-05T12:40:49.082Z,759.38
2019-05-05T12:41:48.857Z,793.12
2019-05-05T12:42:48.848Z,832.50
2019-05-05T12:43:48.833Z,871.88
2019-05-05T12:44:48.822Z,900.00
2019-05-05T12:45:48.812Z,928.12
2019-05-05T12:46:48.869Z,950.62
2019-05-05T12:47:48.787Z,950.62
2019-05-05T12:48:48.796Z,945.00
2019-05-05T12:49:48.824Z,933.75
2019-05-05T12:50:48.850Z,939.38
2019-05-05T12:51:48.752Z,978.75
2019-05-05T12:52:48.858Z,1029.38
2019-05-05T12:53:48.749Z,1057.50
2019-05-05T12:54:48.726Z,1091.25
2019-05-05T12:55:48.699Z,1164.38
2019-05-05T12:56:48.685Z,1299.38
2019-05-05T12:57:48.673Z,1468.12
2019-05-05T12:58:48.728Z,1800.00
2019-05-05T12:59:48.654Z,2002.50